Time;durP1;ratioP1;P1;durP2;ratioP2;P2;SDS_P1;SDS_P2;PMS_P1;PMS_P2;Temp;Humidity;BMP_temperature;BMP_pressure;BME280_temperature;BME280_humidity;BME280_pressure;Samples;Min_cycle;Max_cycle;Signal;HPM_P1;HPM_P2
2023/01/23 00:02:03;;;;;;;0.20;0.20;;;;;;;;;;4972275;28;20054;-65
2023/01/23 00:04:30;;;;;;;2.15;0.57;;;;;;;;;;4975665;28;20041;-66
2023/01/23 00:06:57;;;;;;;2.03;0.50;;;;;;;;;;4976344;28;20117;-66
2023/01/23 00:09:23;;;;;;;0.77;0.30;;;;;;;;;;4976174;28;20042;-66
2023/01/23 00:11:50;;;;;;;4.22;0.50;;;;;;;;;;4974856;28;20779;-66
2023/01/23 00:14:17;;;;;;;0.90;0.35;;;;;;;;;;4975882;28;20038;-66
2023/01/23 00:16:44;;;;;;;1.67;0.50;;;;;;;;;;4974919;28;20038;-67
2023/01/23 00:19:10;;;;;;;4.53;0.50;;;;;;;;;;4980233;28;20042;-66
2023/01/23 00:21:38;;;;;;;1.80;0.45;;;;;;;;;;4973807;28;20053;-67
2023/01/23 00:24:05;;;;;;;1.35;0.43;;;;;;;;;;4975417;28;20066;-66
2023/01/23 00:26:32;;;;;;;2.05;0.40;;;;;;;;;;4975990;28;20035;-66
2023/01/23 00:28:58;;;;;;;3.45;0.70;;;;;;;;;;4976531;28;20046;-68
2023/01/23 00:31:26;;;;;;;5.82;0.43;;;;;;;;;;4974490;28;20053;-67
2023/01/23 00:33:54;;;;;;;0.40;0.30;;;;;;;;;;4977276;28;20037;-66
2023/01/23 00:36:21;;;;;;;3.65;0.50;;;;;;;;;;4979141;28;20137;-67
2023/01/23 00:38:48;;;;;;;1.33;0.45;;;;;;;;;;4976568;28;20193;-65
2023/01/23 00:41:15;;;;;;;0.98;0.38;;;;;;;;;;4983966;28;20034;-66
2023/01/23 00:43:42;;;;;;;2.90;0.47;;;;;;;;;;4995105;28;20045;-65
2023/01/23 00:46:09;;;;;;;1.25;0.50;;;;;;;;;;4996840;28;20054;-64
2023/01/23 00:48:35;;;;;;;1.33;0.40;;;;;;;;;;4994234;28;20103;-68
2023/01/23 00:51:02;;;;;;;2.05;0.60;;;;;;;;;;4995746;28;20726;-66
2023/01/23 00:53:29;;;;;;;3.75;0.60;;;;;;;;;;4994507;28;20042;-67
2023/01/23 00:55:55;;;;;;;8.18;0.88;;;;;;;;;;4997527;28;20034;-66
2023/01/23 00:58:25;;;;;;;2.33;0.60;;;;;;;;;;4987805;28;20092;-68
2023/01/23 01:00:52;;;;;;;1.50;0.55;;;;;;;;;;5013714;28;20504;-66
2023/01/23 01:03:19;;;;;;;7.50;0.80;;;;;;;;;;4998634;28;20125;-67
2023/01/23 01:05:46;;;;;;;2.53;0.55;;;;;;;;;;4998404;28;20061;-68
2023/01/23 01:08:12;;;;;;;1.33;0.40;;;;;;;;;;5014531;28;20046;-68
2023/01/23 01:10:40;;;;;;;2.10;0.60;;;;;;;;;;4997838;28;20137;-67
2023/01/23 01:13:07;;;;;;;2.75;0.75;;;;;;;;;;4997827;28;20049;-67
2023/01/23 01:15:33;;;;;;;2.33;0.60;;;;;;;;;;4997929;28;20072;-67
2023/01/23 01:18:00;;;;;;;2.58;0.60;;;;;;;;;;4998963;28;20054;-67
2023/01/23 01:20:28;;;;;;;8.57;0.90;;;;;;;;;;4997113;28;20038;-67
2023/01/23 01:22:57;;;;;;;3.55;1.00;;;;;;;;;;4997859;28;20048;-66
2023/01/23 01:25:25;;;;;;;3.22;0.93;;;;;;;;;;4998136;28;20465;-66
2023/01/23 01:27:51;;;;;;;5.38;1.00;;;;;;;;;;4998851;28;20057;-66
2023/01/23 01:30:18;;;;;;;4.20;0.68;;;;;;;;;;4998267;28;20045;-67
2023/01/23 01:32:45;;;;;;;3.33;0.88;;;;;;;;;;4997698;28;20042;-67
2023/01/23 01:35:12;;;;;;;4.18;0.80;;;;;;;;;;4998103;28;20143;-68
2023/01/23 01:37:39;;;;;;;2.53;0.70;;;;;;;;;;4997995;28;20067;-67
2023/01/23 01:40:07;;;;;;;1.70;0.50;;;;;;;;;;4998801;28;20110;-67
2023/01/23 01:42:40;;;;;;;3.83;0.95;;;;;;;;;;4996172;28;20145;-67
2023/01/23 01:45:07;;;;;;;1.63;0.60;;;;;;;;;;4998405;28;20041;-67
2023/01/23 01:47:34;;;;;;;5.50;0.98;;;;;;;;;;4998525;28;20240;-68
2023/01/23 01:50:02;;;;;;;2.22;0.70;;;;;;;;;;4998492;28;20573;-67
2023/01/23 01:52:29;;;;;;;7.05;0.90;;;;;;;;;;4996874;28;20046;-67
2023/01/23 01:54:58;;;;;;;5.13;0.85;;;;;;;;;;4998454;28;20044;-67
2023/01/23 01:57:34;;;;;;;3.40;0.85;;;;;;;;;;4997787;28;20068;-67
2023/01/23 02:00:07;;;;;;;2.58;0.90;;;;;;;;;;5016166;28;20551;-68
2023/01/23 02:02:35;;;;;;;5.40;0.90;;;;;;;;;;4996748;28;20093;-68
2023/01/23 02:05:06;;;;;;;3.03;0.85;;;;;;;;;;5011989;28;20045;-67
2023/01/23 02:07:36;;;;;;;2.80;0.77;;;;;;;;;;5011694;28;20049;-67
2023/01/23 02:10:04;;;;;;;4.03;0.80;;;;;;;;;;4998372;28;20045;-68
2023/01/23 02:12:33;;;;;;;3.88;1.10;;;;;;;;;;4996549;28;20049;-71
2023/01/23 02:15:01;;;;;;;8.15;1.42;;;;;;;;;;5013368;28;20125;-66
2023/01/23 02:17:28;;;;;;;8.25;1.67;;;;;;;;;;5012975;28;20038;-66
2023/01/23 02:19:58;;;;;;;4.60;1.40;;;;;;;;;;4997808;28;20069;-67
2023/01/23 02:22:24;;;;;;;6.53;1.38;;;;;;;;;;4996042;28;20046;-66
2023/01/23 02:25:11;;;;;;;4.00;1.40;;;;;;;;;;5013016;28;20137;-66
2023/01/23 02:27:38;;;;;;;8.10;1.58;;;;;;;;;;4993150;28;20033;-66
2023/01/23 02:30:06;;;;;;;6.18;1.48;;;;;;;;;;4997949;28;20502;-67
2023/01/23 02:32:34;;;;;;;7.80;1.90;;;;;;;;;;5008580;28;20478;-67
2023/01/23 02:35:04;;;;;;;8.38;1.67;;;;;;;;;;4996967;28;20045;-66
2023/01/23 02:37:33;;;;;;;11.30;1.50;;;;;;;;;;5012457;28;20057;-66
2023/01/23 02:40:02;;;;;;;6.97;1.60;;;;;;;;;;4997743;28;20064;-66
2023/01/23 02:42:29;;;;;;;9.13;1.35;;;;;;;;;;4996461;28;20193;-66
2023/01/23 02:44:56;;;;;;;6.32;1.58;;;;;;;;;;4996192;28;20510;-66
2023/01/23 02:47:24;;;;;;;4.97;1.27;;;;;;;;;;4997210;28;20061;-66
2023/01/23 02:49:51;;;;;;;5.57;1.33;;;;;;;;;;4996568;28;20045;-65
2023/01/23 02:52:17;;;;;;;4.60;1.00;;;;;;;;;;4996304;28;20591;-66
2023/01/23 02:54:44;;;;;;;3.78;1.40;;;;;;;;;;4997173;28;20764;-65
2023/01/23 02:57:11;;;;;;;4.13;1.20;;;;;;;;;;5009686;28;20138;-64
2023/01/23 03:02:23;;;;;;;4.15;1.05;;;;;;;;;;4995802;28;20064;-65
2023/01/23 03:04:50;;;;;;;5.03;1.20;;;;;;;;;;5013344;28;20368;-65
2023/01/23 03:07:17;;;;;;;9.32;1.20;;;;;;;;;;4995800;28;20446;-66
2023/01/23 03:09:46;;;;;;;5.93;1.10;;;;;;;;;;4995934;28;20072;-66
2023/01/23 03:12:14;;;;;;;3.78;1.23;;;;;;;;;;4996262;28;20042;-66
2023/01/23 03:14:40;;;;;;;8.52;1.20;;;;;;;;;;4996059;28;20060;-66
2023/01/23 03:17:09;;;;;;;6.10;0.80;;;;;;;;;;4996428;28;20446;-65
2023/01/23 03:19:37;;;;;;;10.18;1.40;;;;;;;;;;5007748;28;20529;-65
2023/01/23 03:22:04;;;;;;;6.10;1.15;;;;;;;;;;4995918;28;20427;-67
2023/01/23 03:24:34;;;;;;;4.32;1.00;;;;;;;;;;4996272;28;20152;-70
2023/01/23 03:27:01;;;;;;;3.58;0.90;;;;;;;;;;4997421;28;20423;-65
2023/01/23 03:32:13;;;;;;;4.07;1.20;;;;;;;;;;4996411;28;20080;-66
2023/01/23 03:34:40;;;;;;;3.10;1.08;;;;;;;;;;5011748;28;20125;-66
2023/01/23 03:37:07;;;;;;;6.50;0.90;;;;;;;;;;4997162;28;20038;-67
2023/01/23 03:42:19;;;;;;;3.58;1.00;;;;;;;;;;4996031;28;20116;-65
2023/01/23 03:44:46;;;;;;;3.55;1.20;;;;;;;;;;5000513;28;20048;-73
2023/01/23 03:47:12;;;;;;;7.40;1.02;;;;;;;;;;4995903;28;20107;-66
2023/01/23 03:49:39;;;;;;;9.02;1.15;;;;;;;;;;4997023;28;20815;-67
2023/01/23 03:52:08;;;;;;;3.20;1.05;;;;;;;;;;4995071;28;20071;-67
2023/01/23 03:54:35;;;;;;;4.25;1.25;;;;;;;;;;4999335;28;20050;-66
2023/01/23 03:57:02;;;;;;;5.60;1.40;;;;;;;;;;4995074;28;20061;-69
2023/01/23 03:59:29;;;;;;;6.03;1.45;;;;;;;;;;4995120;28;20048;-69
2023/01/23 04:01:56;;;;;;;10.48;1.38;;;;;;;;;;5001856;28;20534;-68
2023/01/23 04:04:23;;;;;;;9.63;1.73;;;;;;;;;;4994270;28;20050;-70
2023/01/23 04:06:50;;;;;;;5.55;1.27;;;;;;;;;;4995641;28;20042;-68
2023/01/23 04:09:16;;;;;;;11.20;1.17;;;;;;;;;;4995759;28;20045;-67
2023/01/23 04:11:43;;;;;;;2.78;0.90;;;;;;;;;;4992018;28;20495;-66
2023/01/23 04:14:10;;;;;;;3.10;1.00;;;;;;;;;;4995270;28;20052;-67
2023/01/23 04:16:36;;;;;;;4.43;1.05;;;;;;;;;;4993357;28;20865;-68
2023/01/23 04:19:03;;;;;;;2.70;1.00;;;;;;;;;;4996097;28;20052;-68
2023/01/23 04:21:30;;;;;;;3.00;0.90;;;;;;;;;;4993885;28;20049;-68
2023/01/23 04:23:56;;;;;;;3.38;1.27;;;;;;;;;;4995055;28;20065;-66
2023/01/23 04:26:23;;;;;;;5.20;1.20;;;;;;;;;;4989684;28;20152;-67
2023/01/23 04:28:50;;;;;;;3.33;0.88;;;;;;;;;;4994814;28;20046;-69
2023/01/23 04:31:16;;;;;;;6.55;1.30;;;;;;;;;;4997770;28;20399;-68
2023/01/23 04:33:43;;;;;;;8.57;1.10;;;;;;;;;;5015054;28;20053;-68
2023/01/23 04:36:10;;;;;;;8.82;1.27;;;;;;;;;;5014937;28;20034;-67
2023/01/23 04:38:37;;;;;;;7.13;1.30;;;;;;;;;;4996456;28;20037;-66
2023/01/23 04:41:09;;;;;;;5.82;1.27;;;;;;;;;;4994695;28;20149;-67
2023/01/23 04:43:36;;;;;;;4.00;0.95;;;;;;;;;;4943619;28;20056;-68
2023/01/23 04:46:22;;;;;;;9.57;1.25;;;;;;;;;;4980680;28;20050;-67
2023/01/23 04:48:49;;;;;;;5.68;1.33;;;;;;;;;;5005132;28;20065;-68
2023/01/23 04:51:16;;;;;;;8.63;1.13;;;;;;;;;;5017816;28;20062;-68
2023/01/23 04:53:42;;;;;;;4.18;1.17;;;;;;;;;;5016064;28;20030;-67
2023/01/23 04:56:09;;;;;;;5.22;1.25;;;;;;;;;;5017359;28;20503;-65
2023/01/23 04:58:37;;;;;;;4.88;1.20;;;;;;;;;;5007746;28;20053;-67
2023/01/23 05:01:07;;;;;;;6.88;1.15;;;;;;;;;;5015289;28;20085;-66
2023/01/23 05:03:34;;;;;;;4.35;1.10;;;;;;;;;;5016413;28;20080;-66
2023/01/23 05:06:00;;;;;;;3.90;0.98;;;;;;;;;;5017005;28;20030;-65
2023/01/23 05:08:27;;;;;;;9.15;1.40;;;;;;;;;;5015476;28;20045;-66
2023/01/23 05:10:54;;;;;;;5.65;1.40;;;;;;;;;;5007748;28;20045;-66
2023/01/23 05:13:20;;;;;;;4.15;1.50;;;;;;;;;;5015539;28;20041;-66
2023/01/23 05:15:47;;;;;;;3.33;1.00;;;;;;;;;;5016181;28;20034;-66
2023/01/23 05:18:13;;;;;;;4.78;1.27;;;;;;;;;;5016431;28;20038;-66
2023/01/23 05:20:40;;;;;;;4.53;1.40;;;;;;;;;;5014916;28;20090;-65
2023/01/23 05:23:07;;;;;;;3.10;1.10;;;;;;;;;;5008937;28;20074;-67
2023/01/23 05:25:34;;;;;;;3.83;1.33;;;;;;;;;;4993066;28;20046;-66
2023/01/23 05:28:00;;;;;;;4.43;1.17;;;;;;;;;;4979247;28;20046;-66
2023/01/23 05:30:27;;;;;;;6.13;1.27;;;;;;;;;;4977999;28;20053;-66
2023/01/23 05:32:54;;;;;;;7.00;1.30;;;;;;;;;;4978777;28;21754;-66
2023/01/23 05:35:21;;;;;;;3.30;0.98;;;;;;;;;;4979289;28;20698;-66
2023/01/23 05:37:54;;;;;;;3.95;1.30;;;;;;;;;;4978813;28;20038;-66
2023/01/23 05:40:20;;;;;;;3.17;1.10;;;;;;;;;;4977356;28;20498;-66
2023/01/23 05:42:48;;;;;;;1.63;0.60;;;;;;;;;;4978228;28;20042;-67
2023/01/23 05:45:14;;;;;;;3.00;0.90;;;;;;;;;;4978378;28;20034;-67
2023/01/23 05:47:41;;;;;;;3.55;0.90;;;;;;;;;;4977921;28;20507;-66
2023/01/23 05:50:09;;;;;;;7.32;0.98;;;;;;;;;;4978465;28;20050;-67
2023/01/23 05:52:36;;;;;;;7.75;1.15;;;;;;;;;;4975487;28;20057;-66
2023/01/23 05:55:03;;;;;;;9.18;1.13;;;;;;;;;;4978973;28;20048;-67
2023/01/23 05:57:29;;;;;;;5.25;1.10;;;;;;;;;;4977675;28;20038;-67
2023/01/23 05:59:56;;;;;;;5.63;1.40;;;;;;;;;;4977790;28;20061;-67
2023/01/23 06:02:23;;;;;;;5.53;0.85;;;;;;;;;;4977650;28;20038;-67
2023/01/23 06:04:49;;;;;;;4.70;1.10;;;;;;;;;;4977718;28;20050;-67
2023/01/23 06:07:17;;;;;;;5.30;1.20;;;;;;;;;;4978481;28;20557;-66
2023/01/23 06:09:44;;;;;;;8.93;1.05;;;;;;;;;;4977418;28;20133;-66
2023/01/23 06:12:11;;;;;;;6.20;1.08;;;;;;;;;;4978043;28;20077;-66
2023/01/23 06:14:37;;;;;;;3.55;1.15;;;;;;;;;;4977954;28;20851;-66
2023/01/23 06:17:04;;;;;;;7.72;1.25;;;;;;;;;;4977435;28;20376;-67
2023/01/23 06:19:31;;;;;;;6.22;1.10;;;;;;;;;;4977500;28;20108;-67
2023/01/23 06:21:58;;;;;;;6.20;1.73;;;;;;;;;;4977374;28;20081;-67
2023/01/23 06:24:24;;;;;;;4.38;1.20;;;;;;;;;;4977000;28;20105;-67
2023/01/23 06:26:51;;;;;;;3.70;1.25;;;;;;;;;;4977531;28;20049;-67
2023/01/23 06:29:18;;;;;;;7.03;1.27;;;;;;;;;;4978936;28;20132;-68
2023/01/23 06:31:46;;;;;;;3.92;1.08;;;;;;;;;;4976659;28;20621;-67
2023/01/23 06:34:13;;;;;;;4.32;1.15;;;;;;;;;;4977641;28;20057;-67
2023/01/23 06:36:40;;;;;;;4.72;1.25;;;;;;;;;;4977289;28;20070;-67
2023/01/23 06:39:07;;;;;;;5.38;1.33;;;;;;;;;;4977683;28;20043;-67
2023/01/23 06:41:33;;;;;;;10.13;1.52;;;;;;;;;;4977027;28;20050;-67
2023/01/23 06:44:00;;;;;;;4.15;1.33;;;;;;;;;;4978185;28;20392;-67
2023/01/23 06:46:27;;;;;;;3.97;1.23;;;;;;;;;;4977927;28;20065;-68
2023/01/23 06:48:53;;;;;;;6.32;1.13;;;;;;;;;;4978906;28;20049;-68
2023/01/23 06:51:20;;;;;;;10.88;1.70;;;;;;;;;;4976150;28;20042;-68
2023/01/23 06:53:46;;;;;;;4.13;1.02;;;;;;;;;;4978094;28;20053;-67
2023/01/23 06:56:13;;;;;;;3.67;1.10;;;;;;;;;;4977998;28;20042;-67
2023/01/23 06:58:43;;;;;;;7.13;1.10;;;;;;;;;;4976467;28;20045;-68
2023/01/23 07:01:10;;;;;;;4.10;1.30;;;;;;;;;;4977663;28;20046;-67
2023/01/23 07:03:37;;;;;;;9.38;1.10;;;;;;;;;;4976850;28;20038;-68
2023/01/23 07:06:05;;;;;;;4.75;1.27;;;;;;;;;;4977624;28;20040;-67
2023/01/23 07:08:33;;;;;;;5.93;1.20;;;;;;;;;;4977773;28;20152;-68
2023/01/23 07:11:00;;;;;;;3.40;1.30;;;;;;;;;;4978646;28;21072;-68
2023/01/23 07:13:26;;;;;;;3.45;1.10;;;;;;;;;;4979016;28;20047;-68
2023/01/23 07:15:53;;;;;;;5.68;1.15;;;;;;;;;;4978490;28;20117;-69
2023/01/23 07:18:20;;;;;;;3.10;1.10;;;;;;;;;;4977844;28;20109;-68
2023/01/23 07:20:48;;;;;;;4.55;1.10;;;;;;;;;;4977085;28;20601;-68
2023/01/23 07:23:15;;;;;;;4.70;1.20;;;;;;;;;;4977596;28;20115;-67
2023/01/23 07:25:43;;;;;;;4.47;1.25;;;;;;;;;;4976518;28;20045;-68
2023/01/23 07:28:10;;;;;;;6.88;1.00;;;;;;;;;;4977486;28;20135;-69
2023/01/23 07:30:36;;;;;;;13.15;1.60;;;;;;;;;;4975922;28;20045;-67
2023/01/23 07:33:03;;;;;;;4.55;1.38;;;;;;;;;;4977090;28;20042;-67
2023/01/23 07:35:30;;;;;;;3.65;1.10;;;;;;;;;;4976568;28;20041;-67
2023/01/23 07:37:57;;;;;;;7.53;1.10;;;;;;;;;;4977647;28;20065;-68
2023/01/23 07:40:23;;;;;;;16.10;1.70;;;;;;;;;;4992154;28;20053;-67
2023/01/23 07:42:50;;;;;;;4.60;1.13;;;;;;;;;;4976672;28;20042;-67
2023/01/23 07:45:17;;;;;;;3.63;1.15;;;;;;;;;;4976927;28;20809;-67
2023/01/23 07:47:43;;;;;;;4.88;1.15;;;;;;;;;;4976126;28;20050;-67
2023/01/23 07:50:11;;;;;;;3.38;1.05;;;;;;;;;;4976176;28;21738;-67
2023/01/23 07:52:38;;;;;;;4.55;1.60;;;;;;;;;;4974984;28;20126;-67
2023/01/23 07:55:05;;;;;;;3.95;1.10;;;;;;;;;;4976642;28;20681;-67
2023/01/23 07:57:32;;;;;;;5.05;1.08;;;;;;;;;;4976331;28;20137;-67
2023/01/23 07:59:59;;;;;;;3.17;1.08;;;;;;;;;;4976636;28;20042;-67
2023/01/23 08:02:26;;;;;;;7.53;1.30;;;;;;;;;;4974816;28;21254;-67
2023/01/23 08:04:52;;;;;;;4.15;1.50;;;;;;;;;;4976622;28;20038;-68
2023/01/23 08:07:19;;;;;;;4.88;1.50;;;;;;;;;;4975232;28;20107;-68
2023/01/23 08:09:46;;;;;;;3.88;1.60;;;;;;;;;;4976526;28;20553;-68
2023/01/23 08:12:12;;;;;;;7.43;1.50;;;;;;;;;;4976026;28;20046;-69
2023/01/23 08:14:40;;;;;;;4.28;1.33;;;;;;;;;;4975709;28;20037;-68
2023/01/23 08:17:06;;;;;;;3.83;0.90;;;;;;;;;;4976173;28;20042;-67
2023/01/23 08:19:33;;;;;;;12.23;1.45;;;;;;;;;;4976079;28;20141;-68
2023/01/23 08:21:59;;;;;;;8.05;1.60;;;;;;;;;;4990613;28;20154;-69
2023/01/23 08:24:26;;;;;;;4.75;1.45;;;;;;;;;;4969744;28;20049;-68
2023/01/23 08:26:53;;;;;;;3.15;1.00;;;;;;;;;;4975646;28;20038;-68
2023/01/23 08:29:19;;;;;;;7.85;1.42;;;;;;;;;;4990150;28;20085;-68
2023/01/23 08:31:46;;;;;;;2.95;1.08;;;;;;;;;;4976278;28;20068;-68
2023/01/23 08:34:13;;;;;;;9.00;1.42;;;;;;;;;;4977114;28;20921;-68
2023/01/23 08:36:39;;;;;;;6.20;1.38;;;;;;;;;;4975484;28;20823;-67
2023/01/23 08:39:06;;;;;;;7.22;1.60;;;;;;;;;;4976445;28;20038;-69
2023/01/23 08:41:33;;;;;;;3.05;1.10;;;;;;;;;;4975600;28;20043;-67
2023/01/23 08:44:00;;;;;;;4.00;1.02;;;;;;;;;;4990344;28;20395;-67
2023/01/23 08:46:28;;;;;;;6.85;1.75;;;;;;;;;;4974809;28;20550;-67
2023/01/23 08:48:54;;;;;;;3.20;1.13;;;;;;;;;;4976119;28;20049;-66
2023/01/23 08:51:21;;;;;;;2.85;1.10;;;;;;;;;;4975465;28;20026;-66
2023/01/23 08:53:51;;;;;;;2.78;1.13;;;;;;;;;;4970920;28;20053;-67
2023/01/23 08:56:19;;;;;;;3.17;1.13;;;;;;;;;;4975870;28;20131;-67
2023/01/23 08:58:46;;;;;;;4.35;1.25;;;;;;;;;;4975728;28;20053;-67
2023/01/23 09:01:14;;;;;;;3.65;1.23;;;;;;;;;;4975916;28;20046;-67
2023/01/23 09:03:40;;;;;;;3.00;1.23;;;;;;;;;;4975862;28;20038;-67
2023/01/23 09:06:07;;;;;;;4.10;1.30;;;;;;;;;;4975216;28;20035;-67
2023/01/23 09:08:34;;;;;;;2.75;1.05;;;;;;;;;;4974715;28;20042;-67
2023/01/23 09:11:03;;;;;;;4.55;1.05;;;;;;;;;;4975013;28;20908;-67
2023/01/23 09:13:30;;;;;;;2.65;1.00;;;;;;;;;;4975582;28;20058;-67
2023/01/23 09:15:56;;;;;;;10.50;1.35;;;;;;;;;;4976505;28;20093;-68
2023/01/23 09:18:24;;;;;;;8.02;1.23;;;;;;;;;;4979045;28;20043;-67
2023/01/23 09:20:51;;;;;;;3.95;1.15;;;;;;;;;;4978510;28;20098;-67
2023/01/23 09:23:18;;;;;;;4.82;1.00;;;;;;;;;;4981064;28;20034;-67
2023/01/23 09:25:44;;;;;;;9.45;1.40;;;;;;;;;;4980881;28;20045;-67
2023/01/23 09:28:11;;;;;;;2.85;0.90;;;;;;;;;;4980510;28;20038;-67
2023/01/23 09:30:38;;;;;;;3.45;0.95;;;;;;;;;;4973952;28;20061;-67
2023/01/23 09:33:05;;;;;;;3.70;1.08;;;;;;;;;;4981102;28;20046;-68
2023/01/23 09:35:32;;;;;;;3.38;0.80;;;;;;;;;;4978882;28;20447;-69
2023/01/23 09:37:58;;;;;;;12.75;1.10;;;;;;;;;;4978426;28;20048;-68
2023/01/23 09:40:27;;;;;;;2.22;0.85;;;;;;;;;;4978232;28;20050;-68
2023/01/23 09:42:54;;;;;;;4.13;1.23;;;;;;;;;;4975874;28;20041;-68
2023/01/23 09:45:22;;;;;;;2.00;0.68;;;;;;;;;;4975907;28;20525;-68
2023/01/23 09:47:53;;;;;;;2.35;0.88;;;;;;;;;;4978948;28;20190;-68
2023/01/23 09:50:23;;;;;;;3.35;0.98;;;;;;;;;;4977471;28;20462;-68
2023/01/23 09:52:53;;;;;;;4.63;0.98;;;;;;;;;;4981780;28;20046;-67
2023/01/23 09:55:34;;;;;;;2.55;0.80;;;;;;;;;;4978149;28;20042;-67
2023/01/23 09:58:02;;;;;;;2.80;1.02;;;;;;;;;;4978381;28;21753;-67
2023/01/23 10:00:33;;;;;;;3.00;1.20;;;;;;;;;;4976414;28;20061;-67
2023/01/23 10:03:04;;;;;;;3.00;1.10;;;;;;;;;;4979710;28;20101;-68
2023/01/23 10:05:34;;;;;;;3.35;1.33;;;;;;;;;;4977562;28;20042;-68
2023/01/23 10:08:00;;;;;;;3.53;1.40;;;;;;;;;;4977553;28;20038;-68
2023/01/23 10:10:45;;;;;;;7.72;1.35;;;;;;;;;;4977265;28;20042;-68
2023/01/23 10:13:12;;;;;;;7.22;1.80;;;;;;;;;;4978540;28;20360;-68
2023/01/23 10:15:38;;;;;;;3.92;1.33;;;;;;;;;;4991874;28;20077;-67
2023/01/23 10:18:25;;;;;;;5.78;1.80;;;;;;;;;;4977433;28;20042;-67
2023/01/23 10:20:57;;;;;;;4.55;1.88;;;;;;;;;;4975882;28;20148;-68
2023/01/23 10:23:24;;;;;;;4.05;2.00;;;;;;;;;;4977651;28;20077;-67
2023/01/23 10:25:51;;;;;;;4.35;1.90;;;;;;;;;;4973522;28;20045;-68
2023/01/23 10:28:24;;;;;;;5.68;1.90;;;;;;;;;;4988514;28;20045;-67
2023/01/23 10:30:59;;;;;;;6.95;2.00;;;;;;;;;;4976965;28;20163;-68
2023/01/23 10:33:31;;;;;;;6.85;1.90;;;;;;;;;;4976467;28;20049;-67
2023/01/23 10:36:24;;;;;;;9.17;2.00;;;;;;;;;;4977652;28;20376;-68
2023/01/23 10:39:02;;;;;;;5.50;2.08;;;;;;;;;;4974866;28;20783;-68
2023/01/23 10:41:28;;;;;;;7.03;2.67;;;;;;;;;;4974779;28;20137;-68
2023/01/23 10:43:58;;;;;;;5.38;2.20;;;;;;;;;;4976654;28;20519;-68
2023/01/23 10:46:54;;;;;;;7.03;2.05;;;;;;;;;;4983642;28;20049;-68
2023/01/23 10:49:37;;;;;;;5.35;2.22;;;;;;;;;;4993687;28;20100;-67
2023/01/23 10:52:05;;;;;;;5.40;1.55;;;;;;;;;;4991405;28;20057;-68
2023/01/23 10:54:44;;;;;;;5.95;2.05;;;;;;;;;;4993606;28;20037;-68
2023/01/23 10:57:37;;;;;;;4.50;1.58;;;;;;;;;;4972756;28;20047;-68
2023/01/23 11:00:17;;;;;;;7.45;2.15;;;;;;;;;;4973517;28;20132;-68
2023/01/23 11:02:44;;;;;;;5.53;1.63;;;;;;;;;;4972940;28;20088;-68
2023/01/23 11:05:29;;;;;;;3.53;1.17;;;;;;;;;;4964392;28;20046;-67
2023/01/23 11:07:55;;;;;;;3.95;1.30;;;;;;;;;;4958819;28;22420;-68
2023/01/23 11:10:22;;;;;;;5.22;1.40;;;;;;;;;;4973997;28;20586;-68
2023/01/23 11:12:54;;;;;;;4.55;1.60;;;;;;;;;;4970426;28;20042;-68
2023/01/23 11:15:24;;;;;;;3.70;1.48;;;;;;;;;;4973394;28;20057;-68
2023/01/23 11:17:52;;;;;;;4.22;1.10;;;;;;;;;;4983842;28;20418;-67
2023/01/23 11:20:30;;;;;;;8.43;1.42;;;;;;;;;;4991039;28;20038;-67
2023/01/23 11:23:03;;;;;;;3.67;1.15;;;;;;;;;;4992339;28;21136;-69
2023/01/23 11:25:36;;;;;;;2.47;1.02;;;;;;;;;;4992090;28;20049;-68
2023/01/23 11:28:04;;;;;;;2.28;1.02;;;;;;;;;;4993368;28;20402;-68
2023/01/23 11:30:49;;;;;;;2.50;0.88;;;;;;;;;;4990395;28;20543;-67
2023/01/23 11:33:24;;;;;;;2.15;0.73;;;;;;;;;;4993167;28;20503;-67
2023/01/23 11:35:55;;;;;;;3.03;1.00;;;;;;;;;;4979752;28;20907;-65
2023/01/23 11:38:24;;;;;;;4.20;1.20;;;;;;;;;;4975886;28;20038;-67
2023/01/23 11:40:51;;;;;;;3.15;1.02;;;;;;;;;;4976229;28;20089;-66
2023/01/23 11:43:18;;;;;;;2.67;0.98;;;;;;;;;;4975763;28;20089;-67
2023/01/23 11:46:09;;;;;;;4.35;0.95;;;;;;;;;;4975776;28;20049;-66
2023/01/23 11:48:54;;;;;;;2.80;1.00;;;;;;;;;;4992566;28;20060;-68
2023/01/23 11:51:23;;;;;;;2.70;0.88;;;;;;;;;;4976933;28;20145;-74
2023/01/23 11:54:08;;;;;;;5.47;1.13;;;;;;;;;;4975773;28;20138;-67
2023/01/23 11:56:44;;;;;;;2.38;0.98;;;;;;;;;;4977578;28;20402;-66
2023/01/23 11:59:24;;;;;;;3.55;1.30;;;;;;;;;;4977092;28;20121;-67
2023/01/23 12:01:54;;;;;;;2.55;1.08;;;;;;;;;;4976756;28;20031;-67
2023/01/23 12:04:39;;;;;;;3.75;1.33;;;;;;;;;;4991708;28;20045;-66
2023/01/23 12:07:12;;;;;;;3.25;1.00;;;;;;;;;;4993312;28;20121;-69
2023/01/23 12:09:45;;;;;;;3.05;1.25;;;;;;;;;;4976246;28;20034;-69
2023/01/23 12:12:12;;;;;;;;;;;;;;;;;;4975534;28;20049;-67
2023/01/23 12:14:57;;;;;;;7.93;1.10;;;;;;;;;;4974449;28;20008;-67
2023/01/23 12:17:35;;;;;;;3.35;1.45;;;;;;;;;;4987630;28;20030;-66
2023/01/23 12:20:20;;;;;;;11.50;1.58;;;;;;;;;;4975894;28;20045;-69
2023/01/23 12:22:52;;;;;;;7.28;1.60;;;;;;;;;;4974647;28;20030;-67
2023/01/23 12:25:22;;;;;;;4.40;1.10;;;;;;;;;;4974793;28;20100;-67
2023/01/23 12:27:56;;;;;;;3.15;0.93;;;;;;;;;;4974755;28;20038;-66
2023/01/23 12:30:23;;;;;;;5.53;1.00;;;;;;;;;;4989948;28;20043;-67
2023/01/23 12:33:08;;;;;;;3.28;1.15;;;;;;;;;;4989786;28;20444;-67
2023/01/23 12:35:53;;;;;;;3.00;1.23;;;;;;;;;;4975646;28;20101;-67
2023/01/23 12:38:19;;;;;;;3.10;1.10;;;;;;;;;;4990676;28;20064;-68
2023/01/23 12:40:49;;;;;;;2.97;1.17;;;;;;;;;;4969134;28;20109;-69
2023/01/23 12:43:15;;;;;;;3.97;1.15;;;;;;;;;;4990510;28;20133;-67
2023/01/23 12:45:47;;;;;;;4.40;1.00;;;;;;;;;;4980745;28;20051;-66
2023/01/23 12:48:18;;;;;;;2.85;0.90;;;;;;;;;;4988497;28;20050;-66
2023/01/23 12:50:44;;;;;;;3.60;0.85;;;;;;;;;;4975777;28;20626;-68
2023/01/23 12:53:12;;;;;;;3.70;1.23;;;;;;;;;;4979363;28;20046;-68
2023/01/23 12:55:43;;;;;;;2.47;0.90;;;;;;;;;;4978499;28;20046;-68
2023/01/23 12:58:13;;;;;;;2.85;0.95;;;;;;;;;;4979252;28;20078;-68
2023/01/23 13:00:43;;;;;;;4.50;1.10;;;;;;;;;;4978970;28;20046;-68
2023/01/23 13:03:18;;;;;;;3.08;1.00;;;;;;;;;;4979066;28;20061;-68
2023/01/23 13:06:02;;;;;;;2.45;0.77;;;;;;;;;;4975453;28;20034;-69
2023/01/23 13:08:50;;;;;;;2.95;0.90;;;;;;;;;;4978531;28;20053;-68
2023/01/23 13:14:23;;;;;;;2.30;0.85;;;;;;;;;;4978567;28;20597;-69
2023/01/23 13:16:50;;;;;;;3.03;0.90;;;;;;;;;;4978751;28;20554;-68
2023/01/23 13:22:16;;;;;;;3.13;0.95;;;;;;;;;;4978766;28;20092;-67
2023/01/23 13:27:41;;;;;;;3.00;1.08;;;;;;;;;;4976931;28;20038;-67
2023/01/23 13:30:30;;;;;;;6.72;1.77;;;;;;;;;;4993543;28;20041;-68
2023/01/23 13:33:02;;;;;;;5.35;1.52;;;;;;;;;;4977361;28;21133;-68
2023/01/23 13:35:43;;;;;;;3.95;1.25;;;;;;;;;;4978660;28;20076;-67
2023/01/23 13:38:28;;;;;;;5.72;1.30;;;;;;;;;;4978201;28;20042;-68
2023/01/23 13:41:04;;;;;;;3.55;1.20;;;;;;;;;;4983592;28;20117;-70
2023/01/23 13:43:53;;;;;;;4.43;1.02;;;;;;;;;;4980654;28;20100;-69
2023/01/23 13:46:23;;;;;;;3.38;1.20;;;;;;;;;;4961630;28;20058;-67
2023/01/23 13:51:56;;;;;;;3.05;1.00;;;;;;;;;;4961235;28;20040;-68
2023/01/23 13:57:14;;;;;;;10.30;1.33;;;;;;;;;;4977274;28;20053;-68
2023/01/23 13:59:43;;;;;;;4.05;1.15;;;;;;;;;;4978308;28;20102;-68
2023/01/23 14:05:34;;;;;;;4.82;1.40;;;;;;;;;;4978160;28;20093;-66
2023/01/23 14:08:02;;;;;;;9.07;1.33;;;;;;;;;;4976956;28;20046;-67
2023/01/23 14:10:30;;;;;;;6.55;1.23;;;;;;;;;;4991798;28;20045;-67
2023/01/23 14:13:03;;;;;;;7.95;1.38;;;;;;;;;;4976738;28;20050;-67
2023/01/23 14:18:36;;;;;;;7.82;1.50;;;;;;;;;;4977763;28;20323;-67
2023/01/23 14:21:15;;;;;;;6.80;1.40;;;;;;;;;;4977473;28;20092;-65
2023/01/23 14:23:42;;;;;;;7.85;1.52;;;;;;;;;;4976358;28;20053;-67
2023/01/23 14:26:14;;;;;;;4.80;1.20;;;;;;;;;;4990755;28;20042;-68
2023/01/23 14:28:50;;;;;;;5.40;1.10;;;;;;;;;;4979624;28;20034;-67
2023/01/23 14:31:21;;;;;;;5.15;1.50;;;;;;;;;;4976461;28;20038;-68
2023/01/23 14:33:48;;;;;;;7.80;1.08;;;;;;;;;;4975517;28;20054;-66
2023/01/23 14:36:16;;;;;;;5.80;1.20;;;;;;;;;;4976198;28;20048;-66
2023/01/23 14:38:44;;;;;;;4.60;1.30;;;;;;;;;;4976641;28;20430;-67
2023/01/23 14:41:11;;;;;;;6.80;1.38;;;;;;;;;;4976875;28;20341;-66
2023/01/23 14:43:38;;;;;;;3.85;1.25;;;;;;;;;;4990255;28;21570;-66
2023/01/23 14:46:10;;;;;;;5.53;1.60;;;;;;;;;;4976959;28;20038;-67
2023/01/23 14:48:38;;;;;;;9.43;1.50;;;;;;;;;;4976264;28;20049;-66
2023/01/23 14:51:25;;;;;;;4.85;0.95;;;;;;;;;;4977101;28;20038;-66
2023/01/23 14:54:03;;;;;;;9.15;1.45;;;;;;;;;;4976189;28;20142;-65
2023/01/23 14:56:34;;;;;;;6.00;1.40;;;;;;;;;;4975281;28;20047;-66
2023/01/23 14:59:02;;;;;;;3.72;1.45;;;;;;;;;;4975448;28;20109;-66
2023/01/23 15:01:29;;;;;;;4.40;1.25;;;;;;;;;;4976308;28;20043;-67
2023/01/23 15:03:57;;;;;;;5.25;1.27;;;;;;;;;;4975991;28;20129;-67
2023/01/23 15:06:24;;;;;;;5.13;0.98;;;;;;;;;;4973997;28;20157;-68
2023/01/23 15:08:51;;;;;;;7.25;0.90;;;;;;;;;;4976985;28;20428;-67
2023/01/23 15:11:24;;;;;;;4.85;0.90;;;;;;;;;;4981052;28;20074;-68
2023/01/23 15:13:54;;;;;;;4.20;0.65;;;;;;;;;;4988952;28;20412;-67
2023/01/23 15:16:20;;;;;;;0.95;0.35;;;;;;;;;;4990699;28;20047;-67
2023/01/23 15:18:58;;;;;;;1.92;0.50;;;;;;;;;;4977036;28;20136;-68
2023/01/23 15:21:29;;;;;;;6.40;0.70;;;;;;;;;;4975650;28;20125;-66
2023/01/23 15:24:00;;;;;;;0.98;0.45;;;;;;;;;;4976161;28;20515;-66
2023/01/23 15:26:30;;;;;;;4.00;0.55;;;;;;;;;;4975572;28;20045;-68